createdAt,value
2023-04-24T00:00:27.253Z,4.60
2023-04-24T00:03:31.064Z,3.90
2023-04-24T00:06:35.164Z,4.43
2023-04-24T00:09:37.770Z,4.47
2023-04-24T00:12:40.642Z,4.00
2023-04-24T00:15:43.238Z,4.60
2023-04-24T00:18:45.948Z,4.20
2023-04-24T00:21:51.614Z,3.93
2023-04-24T00:24:54.250Z,4.40
2023-04-24T00:27:56.822Z,4.90
2023-04-24T00:30:59.404Z,4.43
2023-04-24T00:34:02.014Z,4.57
2023-04-24T00:37:06.210Z,4.53
2023-04-24T00:40:09.841Z,4.73
2023-04-24T00:43:12.960Z,4.50
2023-04-24T00:46:16.010Z,4.27
2023-04-24T00:49:18.836Z,4.30
2023-04-24T00:52:25.178Z,4.30
2023-04-24T00:55:28.136Z,4.20
2023-04-24T00:58:31.623Z,3.80
2023-04-24T01:01:34.695Z,4.10
2023-04-24T01:04:37.784Z,4.00
2023-04-24T01:07:44.930Z,4.00
2023-04-24T01:10:49.743Z,3.73
2023-04-24T01:13:52.616Z,3.80
2023-04-24T01:16:55.905Z,4.10
2023-04-24T01:19:58.627Z,4.23
2023-04-24T01:23:02.864Z,4.10
2023-04-24T01:26:05.806Z,3.87
2023-04-24T01:29:08.479Z,3.57
2023-04-24T01:32:11.083Z,4.10
2023-04-24T01:35:13.716Z,3.60
2023-04-24T01:38:17.791Z,3.63
2023-04-24T01:41:21.200Z,3.60
2023-04-24T01:44:24.061Z,3.10
2023-04-24T01:47:26.751Z,3.50
2023-04-24T01:50:29.371Z,3.37
2023-04-24T01:53:33.344Z,3.10
2023-04-24T01:56:36.889Z,2.93
2023-04-24T01:59:39.502Z,3.00
2023-04-24T02:02:44.266Z,2.90
2023-04-24T02:05:48.456Z,3.23
2023-04-24T02:08:52.389Z,2.67
2023-04-24T02:11:54.987Z,3.10
2023-04-24T02:14:57.602Z,2.90
2023-04-24T02:18:00.241Z,3.00
2023-04-24T02:21:02.896Z,2.63
2023-04-24T02:24:06.902Z,2.60
2023-04-24T02:27:09.508Z,2.37
2023-04-24T02:30:12.766Z,2.33
2023-04-24T02:33:15.664Z,2.70
2023-04-24T02:36:18.284Z,2.60
2023-04-24T02:39:22.270Z,2.13
2023-04-24T02:42:24.885Z,2.10
2023-04-24T02:45:27.458Z,2.03
2023-04-24T02:48:30.578Z,1.60
2023-04-24T02:51:33.160Z,1.80
2023-04-24T02:54:37.097Z,1.93
2023-04-24T02:57:39.677Z,1.90
2023-04-24T03:00:42.277Z,1.70
2023-04-24T03:03:45.022Z,1.60
2023-04-24T03:06:47.836Z,1.70
2023-04-24T03:09:51.814Z,1.60
2023-04-24T03:12:55.898Z,1.53
2023-04-24T03:15:58.565Z,1.47
2023-04-24T03:19:01.181Z,1.60
2023-04-24T03:22:04.018Z,1.50
2023-04-24T03:25:10.161Z,1.53
2023-04-24T03:28:12.980Z,1.40
2023-04-24T03:31:16.298Z,1.50
2023-04-24T03:34:18.928Z,1.80
2023-04-24T03:37:21.520Z,1.50
2023-04-24T03:40:25.479Z,1.43
2023-04-24T03:43:28.761Z,1.50
2023-04-24T03:46:31.530Z,1.73
2023-04-24T03:49:34.174Z,1.40
2023-04-24T03:52:36.769Z,1.60
2023-04-24T03:55:40.750Z,1.50
2023-04-24T03:58:44.053Z,1.50
2023-04-24T04:01:47.301Z,1.90
2023-04-24T04:04:49.990Z,1.70
2023-04-24T04:07:52.638Z,3.30
2023-04-24T04:10:56.579Z,3.57
2023-04-24T04:13:59.143Z,1.60
2023-04-24T04:17:01.994Z,1.53
2023-04-24T04:20:08.268Z,1.90
2023-04-24T04:23:10.857Z,1.80
2023-04-24T04:26:14.791Z,1.40
2023-04-24T04:29:18.758Z,1.97
2023-04-24T04:32:21.518Z,1.60
2023-04-24T04:35:24.117Z,1.60
2023-04-24T04:38:27.677Z,1.70
2023-04-24T04:41:31.610Z,1.83
2023-04-24T04:44:36.721Z,1.70
2023-04-24T04:47:40.473Z,1.70
2023-04-24T04:50:43.168Z,1.50
2023-04-24T04:53:45.823Z,1.70
2023-04-24T04:56:51.955Z,1.67
2023-04-24T04:59:54.557Z,1.73
2023-04-24T05:03:05.941Z,1.90
2023-04-24T05:06:16.068Z,1.80
2023-04-24T05:09:18.719Z,1.60
2023-04-24T05:12:22.695Z,1.60
2023-04-24T05:15:25.302Z,1.20
2023-04-24T05:18:27.847Z,2.10
2023-04-24T05:21:30.517Z,1.40
2023-04-24T05:24:33.133Z,1.50
2023-04-24T05:27:37.208Z,1.37
2023-04-24T05:30:39.799Z,1.40
2023-04-24T05:33:42.405Z,1.40
2023-04-24T05:36:44.996Z,1.63
2023-04-24T05:39:47.566Z,1.50
2023-04-24T05:42:51.508Z,1.40
2023-04-24T05:45:56.219Z,1.20
2023-04-24T05:48:58.858Z,1.10
2023-04-24T05:52:01.470Z,1.23
2023-04-24T05:55:04.218Z,1.10
2023-04-24T05:58:08.212Z,1.40
2023-04-24T06:01:11.324Z,1.00
2023-04-24T06:04:15.800Z,0.80
2023-04-24T06:07:19.295Z,1.10
2023-04-24T06:10:21.902Z,1.10
2023-04-24T06:13:25.932Z,2.73
2023-04-24T06:16:28.581Z,4.10
2023-04-24T06:19:31.184Z,3.10
2023-04-24T06:22:33.813Z,1.47
2023-04-24T06:25:36.598Z,2.50
2023-04-24T06:28:40.613Z,1.30
2023-04-24T06:31:43.228Z,1.20
2023-04-24T06:34:45.888Z,1.10
2023-04-24T06:37:48.583Z,1.23
2023-04-24T06:40:51.442Z,1.10
2023-04-24T06:43:55.542Z,1.37
2023-04-24T06:46:58.136Z,1.20
2023-04-24T06:50:00.761Z,1.53
2023-04-24T06:53:03.332Z,1.37
2023-04-24T06:56:06.257Z,1.30
2023-04-24T06:59:10.211Z,1.40
2023-04-24T07:02:12.952Z,1.13
2023-04-24T07:05:16.378Z,1.63
2023-04-24T07:08:19.658Z,1.57
2023-04-24T07:11:23.073Z,1.60
2023-04-24T07:14:26.977Z,1.40
2023-04-24T07:17:29.816Z,1.43
2023-04-24T07:20:32.441Z,1.50
2023-04-24T07:23:35.034Z,1.50
2023-04-24T07:26:37.640Z,1.80
2023-04-24T07:29:42.019Z,1.40
2023-04-24T07:32:44.925Z,1.70
2023-04-24T07:35:47.580Z,1.60
2023-04-24T07:38:50.854Z,1.70
2023-04-24T07:41:53.556Z,1.77
2023-04-24T07:44:57.557Z,2.07
2023-04-24T07:48:00.321Z,1.90
2023-04-24T07:51:03.136Z,1.80
2023-04-24T07:54:06.495Z,1.90
2023-04-24T07:57:09.202Z,1.77
2023-04-24T08:00:14.476Z,2.20
2023-04-24T08:03:19.823Z,1.70
2023-04-24T08:06:23.049Z,1.60
2023-04-24T08:09:27.536Z,1.60
2023-04-24T08:12:30.774Z,1.83
2023-04-24T08:15:34.855Z,1.67
2023-04-24T08:18:37.877Z,1.90
2023-04-24T08:21:40.589Z,2.30
2023-04-24T08:24:43.382Z,1.70
2023-04-24T08:27:46.001Z,1.93
2023-04-24T08:30:55.291Z,2.17
2023-04-24T08:33:58.009Z,2.40
2023-04-24T08:37:00.770Z,2.53
2023-04-24T08:40:04.876Z,2.77
2023-04-24T08:43:07.508Z,2.80
2023-04-24T08:46:12.835Z,3.00
2023-04-24T08:49:17.545Z,3.00
2023-04-24T08:52:21.089Z,3.03
2023-04-24T08:55:23.779Z,3.50
2023-04-24T08:58:27.722Z,3.53
2023-04-24T09:01:34.753Z,3.33
2023-04-24T09:04:38.774Z,3.30
2023-04-24T09:07:46.304Z,3.47
2023-04-24T09:10:51.166Z,3.20
2023-04-24T09:13:55.365Z,3.40
2023-04-24T09:16:59.823Z,3.13
2023-04-24T09:20:02.618Z,3.40
2023-04-24T09:23:05.332Z,3.60
2023-04-24T09:26:08.158Z,4.03
2023-04-24T09:29:17.414Z,3.87
2023-04-24T09:32:23.185Z,3.10
2023-04-24T09:35:26.388Z,3.50
2023-04-24T09:38:37.203Z,3.67
2023-04-24T09:41:46.812Z,3.93
2023-04-24T09:44:58.894Z,3.67
2023-04-24T09:48:11.694Z,3.67
2023-04-24T09:51:16.144Z,3.27
2023-04-24T09:54:21.862Z,3.00
2023-04-24T09:57:24.674Z,3.23
2023-04-24T10:00:28.905Z,3.50
2023-04-24T10:03:33.673Z,3.30
2023-04-24T10:06:37.244Z,3.80
2023-04-24T10:09:39.964Z,3.50
2023-04-24T10:12:42.971Z,3.80
2023-04-24T10:15:46.172Z,3.70
2023-04-24T10:18:50.871Z,3.33
2023-04-24T10:21:55.513Z,4.20
2023-04-24T10:24:58.968Z,4.30
2023-04-24T10:28:03.124Z,5.00
2023-04-24T10:31:06.138Z,4.40
2023-04-24T10:34:11.644Z,3.77
2023-04-24T10:37:14.687Z,4.93
2023-04-24T10:40:20.568Z,4.50
2023-04-24T10:43:23.194Z,4.40
2023-04-24T10:46:30.526Z,4.60
2023-04-24T10:49:34.601Z,4.70
2023-04-24T10:52:46.265Z,5.40
2023-04-24T10:55:51.390Z,5.57
2023-04-24T10:58:55.392Z,5.40
2023-04-24T11:01:57.946Z,5.97
2023-04-24T11:05:05.182Z,14.63
2023-04-24T11:08:23.130Z,6.13
2023-04-24T11:11:30.928Z,6.13
2023-04-24T11:15:03.868Z,6.10
2023-04-24T11:18:06.925Z,6.13
2023-04-24T11:21:14.301Z,6.57
2023-04-24T11:24:30.127Z,6.40
2023-04-24T11:27:34.399Z,5.83
2023-04-24T11:30:37.189Z,5.27
2023-04-24T11:33:39.955Z,6.00
2023-04-24T11:36:45.132Z,5.10
2023-04-24T11:39:47.739Z,4.63
2023-04-24T11:42:51.918Z,5.80
2023-04-24T11:45:55.004Z,5.30
2023-04-24T11:48:58.436Z,5.70
2023-04-24T11:52:03.154Z,5.27
2023-04-24T11:55:06.837Z,4.60
2023-04-24T11:58:09.413Z,4.53
2023-04-24T12:01:12.088Z,4.10
2023-04-24T12:04:15.345Z,4.00
2023-04-24T12:07:19.483Z,3.87
2023-04-24T12:10:22.664Z,3.47
2023-04-24T12:13:27.441Z,4.20
2023-04-24T12:16:31.932Z,3.47
2023-04-24T12:19:34.613Z,3.50
2023-04-24T12:22:48.724Z,3.37
2023-04-24T12:25:53.187Z,3.30
2023-04-24T12:28:55.766Z,3.80
2023-04-24T12:31:58.395Z,4.10
2023-04-24T12:35:01.131Z,3.83
2023-04-24T12:38:13.805Z,3.83
2023-04-24T12:41:16.591Z,4.13
2023-04-24T12:44:19.574Z,4.40
2023-04-24T12:47:22.323Z,4.23
2023-04-24T12:50:24.954Z,5.10
2023-04-24T12:53:30.308Z,4.47
2023-04-24T12:56:32.881Z,5.17
2023-04-24T12:59:35.440Z,5.00
2023-04-24T13:02:38.287Z,3.97
2023-04-24T13:05:41.167Z,3.97
2023-04-24T13:08:45.241Z,3.77
2023-04-24T13:11:47.880Z,3.63
2023-04-24T13:14:50.444Z,3.37
2023-04-24T13:17:53.268Z,3.10
2023-04-24T13:20:55.939Z,3.40
2023-04-24T13:23:59.965Z,3.20
2023-04-24T13:27:03.365Z,3.13
2023-04-24T13:30:07.040Z,3.37
2023-04-24T13:33:09.700Z,6.03
2023-04-24T13:36:12.312Z,3.63
2023-04-24T13:39:17.849Z,3.90
2023-04-24T13:42:21.045Z,5.23
2023-04-24T13:45:25.633Z,3.63
2023-04-24T13:48:28.475Z,3.50
2023-04-24T13:51:31.632Z,3.03
2023-04-24T13:54:35.580Z,3.50
2023-04-24T13:57:38.209Z,3.10
2023-04-24T14:00:41.142Z,3.07
2023-04-24T14:03:44.847Z,3.90
2023-04-24T14:06:47.855Z,3.43
2023-04-24T14:09:51.795Z,3.17
2023-04-24T14:12:54.978Z,3.00
2023-04-24T14:15:57.704Z,3.00
2023-04-24T14:19:00.400Z,2.53
2023-04-24T14:22:03.018Z,2.30
2023-04-24T14:25:08.611Z,2.10
2023-04-24T14:28:11.301Z,2.10
2023-04-24T14:31:13.938Z,2.10
2023-04-24T14:34:16.599Z,2.00
2023-04-24T14:37:19.240Z,2.20
2023-04-24T14:40:48.368Z,2.20
2023-04-24T14:43:46.093Z,2.37
2023-04-24T14:46:50.743Z,2.30
2023-04-24T14:49:53.463Z,2.57
2023-04-24T14:52:58.258Z,2.50
2023-04-24T14:56:02.211Z,2.53
2023-04-24T14:59:04.997Z,2.40
2023-04-24T15:02:15.962Z,2.33
2023-04-24T15:05:20.208Z,2.30
2023-04-24T15:08:22.978Z,2.20
2023-04-24T15:11:27.045Z,2.10
2023-04-24T15:14:29.683Z,1.87
2023-04-24T15:17:32.328Z,1.87
2023-04-24T15:20:38.005Z,5.20
2023-04-24T15:23:41.294Z,2.60
2023-04-24T15:26:45.540Z,2.60
2023-04-24T15:29:48.223Z,3.50
2023-04-24T15:32:51.071Z,4.50
2023-04-24T15:35:53.751Z,3.70
2023-04-24T15:38:56.350Z,4.27
2023-04-24T15:42:01.268Z,3.90
2023-04-24T15:45:04.318Z,12.87
2023-04-24T15:48:07.156Z,5.20
2023-04-24T15:51:09.860Z,6.03
2023-04-24T15:54:12.461Z,4.27
2023-04-24T15:57:16.759Z,6.60
2023-04-24T16:00:20.194Z,3.37
2023-04-24T16:03:23.238Z,2.67
2023-04-24T16:06:27.698Z,2.30
2023-04-24T16:09:30.384Z,2.73
2023-04-24T16:12:34.635Z,2.70
2023-04-24T16:15:37.393Z,2.70
2023-04-24T16:18:40.041Z,3.03
2023-04-24T16:21:42.642Z,3.07
2023-04-24T16:24:47.735Z,2.63
2023-04-24T16:27:52.685Z,3.10
2023-04-24T16:30:55.361Z,3.10
2023-04-24T16:33:57.992Z,2.90
2023-04-24T16:37:00.561Z,3.20
2023-04-24T16:40:04.577Z,3.33
2023-04-24T16:43:08.512Z,3.60
2023-04-24T16:46:11.450Z,4.27
2023-04-24T16:49:14.056Z,4.47
2023-04-24T16:52:16.638Z,4.50
2023-04-24T16:55:19.336Z,4.30
2023-04-24T16:58:23.253Z,4.23
2023-04-24T17:01:26.018Z,4.13
2023-04-24T17:04:28.817Z,4.00
2023-04-24T17:07:31.891Z,4.00
2023-04-24T17:10:34.491Z,4.10
2023-04-24T17:13:38.526Z,4.00
2023-04-24T17:16:41.353Z,4.27
2023-04-24T17:19:43.976Z,3.60
2023-04-24T17:22:46.677Z,3.63
2023-04-24T17:25:49.912Z,3.77
2023-04-24T17:28:55.080Z,4.10
2023-04-24T17:31:58.862Z,3.90
2023-04-24T17:35:02.033Z,4.10
2023-04-24T17:38:04.627Z,3.80
2023-04-24T17:41:07.297Z,3.90
2023-04-24T17:44:11.223Z,3.77
2023-04-24T17:47:13.852Z,3.73
2023-04-24T17:50:16.620Z,3.83
2023-04-24T17:53:19.867Z,3.57
2023-04-24T17:56:24.874Z,3.70
2023-04-24T17:59:28.817Z,4.10
2023-04-24T18:02:31.563Z,3.60
2023-04-24T18:05:36.004Z,3.80
2023-04-24T18:08:38.608Z,3.70
2023-04-24T18:11:42.586Z,4.10
2023-04-24T18:14:46.617Z,3.80
2023-04-24T18:17:49.323Z,4.27
2023-04-24T18:20:52.040Z,3.90
2023-04-24T18:23:55.106Z,4.10
2023-04-24T18:26:57.816Z,4.10
2023-04-24T18:30:02.630Z,3.70
2023-04-24T18:33:05.680Z,4.30
2023-04-24T18:36:08.329Z,3.80
2023-04-24T18:39:10.919Z,4.27
2023-04-24T18:42:13.529Z,6.33
2023-04-24T18:45:17.510Z,4.60
2023-04-24T18:48:20.244Z,4.70
2023-04-24T18:51:23.192Z,3.23
2023-04-24T18:54:25.932Z,3.23
2023-04-24T18:57:28.518Z,3.03
2023-04-24T19:00:32.530Z,2.80
2023-04-24T19:03:35.746Z,3.20
2023-04-24T19:06:38.513Z,2.80
2023-04-24T19:09:41.083Z,3.00
2023-04-24T19:12:43.693Z,3.00
2023-04-24T19:15:47.648Z,2.27
2023-04-24T19:18:50.425Z,2.60
2023-04-24T19:21:53.180Z,2.27
2023-04-24T19:24:58.262Z,2.40
2023-04-24T19:28:00.874Z,2.57
2023-04-24T19:31:04.866Z,2.50
2023-04-24T19:34:07.606Z,2.07
2023-04-24T19:37:10.231Z,2.03
2023-04-24T19:40:13.713Z,2.67
2023-04-24T19:43:16.308Z,2.03
2023-04-24T19:46:20.853Z,2.77
2023-04-24T19:49:23.531Z,2.90
2023-04-24T19:52:26.123Z,2.83
2023-04-24T19:55:28.911Z,3.00
2023-04-24T19:58:31.522Z,2.80
2023-04-24T20:01:35.639Z,3.27
2023-04-24T20:04:38.518Z,3.40
2023-04-24T20:07:41.392Z,7.93
2023-04-24T20:10:45.718Z,4.90
2023-04-24T20:13:48.282Z,4.40
2023-04-24T20:16:54.143Z,4.63
2023-04-24T20:19:56.776Z,5.00
2023-04-24T20:22:59.442Z,5.53
2023-04-24T20:26:02.058Z,5.77
2023-04-24T20:29:05.493Z,5.80
2023-04-24T20:32:09.494Z,4.87
2023-04-24T20:35:12.928Z,5.50
2023-04-24T20:38:15.558Z,5.70
2023-04-24T20:41:19.373Z,5.40
2023-04-24T20:44:22.021Z,5.77
2023-04-24T20:47:26.181Z,5.00
2023-04-24T20:50:28.920Z,4.83
2023-04-24T20:53:31.490Z,5.13
2023-04-24T20:56:34.164Z,4.90
2023-04-24T20:59:36.786Z,4.40
2023-04-24T21:02:40.789Z,4.67
2023-04-24T21:05:43.870Z,4.30
2023-04-24T21:08:46.478Z,4.20
2023-04-24T21:11:49.062Z,4.37
2023-04-24T21:14:51.740Z,4.13
2023-04-24T21:17:55.822Z,4.30
2023-04-24T21:20:58.441Z,4.57
2023-04-24T21:24:04.129Z,4.33
2023-04-24T21:27:07.332Z,4.33
2023-04-24T21:30:11.204Z,3.93
2023-04-24T21:33:15.460Z,4.20
2023-04-24T21:36:18.032Z,4.17
2023-04-24T21:39:20.953Z,12.70
2023-04-24T21:42:23.576Z,13.70
2023-04-24T21:45:26.540Z,4.90
2023-04-24T21:48:30.564Z,5.90
2023-04-24T21:51:33.750Z,4.57
2023-04-24T21:54:36.336Z,3.60
2023-04-24T21:57:39.009Z,3.80
2023-04-24T22:00:41.609Z,3.33
2023-04-24T22:03:45.727Z,3.67
2023-04-24T22:06:48.586Z,3.47
2023-04-24T22:09:51.277Z,3.33
2023-04-24T22:12:53.933Z,3.30
2023-04-24T22:15:56.726Z,3.97
2023-04-24T22:19:00.702Z,3.40
2023-04-24T22:22:03.520Z,3.13
2023-04-24T22:25:07.143Z,3.37
2023-04-24T22:28:09.716Z,3.37
2023-04-24T22:31:12.368Z,3.70
2023-04-24T22:34:16.994Z,3.57
2023-04-24T22:37:19.572Z,3.90
2023-04-24T22:40:22.400Z,3.60
2023-04-24T22:43:25.117Z,3.20
2023-04-24T22:46:27.925Z,3.90
2023-04-24T22:49:33.966Z,3.97
2023-04-24T22:52:36.653Z,3.77
2023-04-24T22:55:39.276Z,3.67
2023-04-24T22:58:42.044Z,3.77
2023-04-24T23:01:44.690Z,3.70
2023-04-24T23:04:49.195Z,4.50
2023-04-24T23:07:51.939Z,4.17
2023-04-24T23:10:54.543Z,4.60
2023-04-24T23:13:57.716Z,4.33
2023-04-24T23:17:00.399Z,4.57
2023-04-24T23:20:05.494Z,3.80
2023-04-24T23:23:08.140Z,4.40
2023-04-24T23:26:10.739Z,4.10
2023-04-24T23:29:13.342Z,4.47
2023-04-24T23:32:16.146Z,4.23
2023-04-24T23:35:20.122Z,4.00
2023-04-24T23:38:22.752Z,4.00
2023-04-24T23:41:25.426Z,3.90
2023-04-24T23:44:28.911Z,3.97
2023-04-24T23:47:31.585Z,4.10
2023-04-24T23:50:35.646Z,4.27
2023-04-24T23:53:38.278Z,3.57
2023-04-24T23:56:40.879Z,3.30
2023-04-24T23:59:43.508Z,3.60
